createdAt,value
2019-05-15T00:01:05.553Z,91.20
2019-05-15T00:03:34.029Z,91.30
2019-05-15T00:06:02.563Z,91.80
2019-05-15T00:08:31.048Z,91.80
2019-05-15T00:10:59.487Z,92.20
2019-05-15T00:13:28.365Z,92.50
2019-05-15T00:15:58.881Z,92.80
2019-05-15T00:18:28.142Z,93.20
2019-05-15T00:20:59.345Z,93.50
2019-05-15T00:23:29.154Z,93.60
2019-05-15T00:25:58.457Z,94.10
2019-05-15T00:28:27.981Z,94.40
2019-05-15T00:30:58.277Z,94.60
2019-05-15T00:33:28.599Z,94.90
2019-05-15T00:35:58.957Z,95.30
2019-05-15T00:38:28.041Z,95.50
2019-05-15T00:40:58.493Z,96.10
2019-05-15T00:43:28.930Z,96.10
2019-05-15T00:45:58.561Z,96.30
2019-05-15T00:48:29.191Z,96.40
2019-05-15T00:50:58.978Z,96.80
2019-05-15T00:53:28.278Z,97.10
2019-05-15T00:55:58.040Z,97.30
2019-05-15T00:58:28.320Z,97.40
2019-05-15T01:00:59.050Z,97.70
2019-05-15T01:03:27.863Z,98.10
2019-05-15T01:05:58.502Z,98.20
2019-05-15T01:08:28.544Z,98.40
2019-05-15T01:10:58.245Z,98.50
2019-05-15T01:13:28.163Z,98.70
2019-05-15T01:15:58.223Z,98.80
2019-05-15T01:18:29.097Z,98.90
2019-05-15T01:20:58.655Z,99.10
2019-05-15T01:23:28.217Z,99.20
2019-05-15T01:25:58.725Z,99.30
2019-05-15T01:28:28.948Z,99.30
2019-05-15T01:30:59.166Z,99.40
2019-05-15T01:33:28.257Z,99.60
2019-05-15T01:35:58.907Z,99.80
2019-05-15T01:38:28.012Z,99.90
2019-05-15T01:40:58.960Z,99.90
2019-05-15T01:43:28.954Z,99.90
2019-05-15T01:45:58.902Z,99.90
2019-05-15T01:48:28.341Z,99.90
2019-05-15T01:50:58.526Z,99.90
2019-05-15T01:53:29.060Z,99.90
2019-05-15T01:55:58.937Z,99.90
2019-05-15T01:58:28.732Z,99.90
2019-05-15T02:00:58.996Z,99.90
2019-05-15T02:03:29.017Z,99.90
2019-05-15T02:05:58.619Z,99.90
2019-05-15T02:08:28.493Z,99.90
2019-05-15T02:10:58.836Z,99.90
2019-05-15T02:13:28.290Z,99.90
2019-05-15T02:15:58.773Z,99.90
2019-05-15T02:18:28.533Z,99.90
2019-05-15T02:20:58.675Z,99.90
2019-05-15T02:23:28.080Z,99.90
2019-05-15T02:25:58.737Z,99.90
2019-05-15T02:28:28.727Z,99.90
2019-05-15T02:30:58.766Z,99.90
2019-05-15T02:33:29.967Z,99.90
2019-05-15T02:35:59.460Z,99.90
2019-05-15T02:38:29.533Z,99.90
2019-05-15T02:40:59.239Z,99.90
2019-05-15T02:43:29.791Z,99.90
2019-05-15T02:46:00.446Z,99.90
2019-05-15T02:48:29.026Z,99.90
2019-05-15T02:50:58.907Z,99.90
2019-05-15T02:53:29.894Z,99.90
2019-05-15T02:56:00.171Z,99.90
2019-05-15T02:58:29.275Z,99.90
2019-05-15T03:00:59.256Z,99.90
2019-05-15T03:03:29.456Z,99.90
2019-05-15T03:06:00.222Z,99.90
2019-05-15T03:08:29.809Z,99.90
2019-05-15T03:10:59.287Z,99.90
2019-05-15T03:13:29.894Z,99.90
2019-05-15T03:15:59.918Z,99.90
2019-05-15T03:18:29.156Z,99.90
2019-05-15T03:21:00.422Z,99.90
2019-05-15T03:23:29.502Z,99.90
2019-05-15T03:26:02.985Z,99.90
2019-05-15T03:28:29.475Z,99.90
2019-05-15T03:31:33.319Z,99.90
2019-05-15T03:33:35.726Z,99.90
2019-05-15T03:36:02.861Z,99.90
2019-05-15T03:38:29.918Z,99.90
2019-05-15T03:40:59.515Z,99.90
2019-05-15T03:43:29.221Z,99.90
2019-05-15T03:46:01.207Z,99.90
2019-05-15T03:48:28.965Z,99.90
2019-05-15T03:50:59.721Z,99.90
2019-05-15T03:53:29.764Z,99.90
2019-05-15T03:55:58.975Z,99.90
2019-05-15T03:58:28.883Z,99.90
2019-05-15T04:01:00.240Z,99.90
2019-05-15T04:03:29.928Z,99.90
2019-05-15T04:06:00.540Z,99.90
2019-05-15T04:08:29.835Z,99.90
2019-05-15T04:10:59.698Z,99.90
2019-05-15T04:13:30.123Z,99.90
2019-05-15T04:15:59.458Z,99.90
2019-05-15T04:18:29.196Z,99.90
2019-05-15T04:21:00.232Z,99.90
2019-05-15T04:23:30.090Z,99.90
2019-05-15T04:25:58.969Z,99.90
2019-05-15T04:28:29.590Z,99.90
2019-05-15T04:30:59.602Z,99.90
2019-05-15T04:33:29.473Z,99.90
2019-05-15T04:35:58.948Z,99.90
2019-05-15T04:38:29.335Z,99.90
2019-05-15T04:40:59.028Z,99.90
2019-05-15T04:43:30.368Z,99.90
2019-05-15T04:45:59.135Z,99.90
2019-05-15T04:48:28.985Z,99.90
2019-05-15T04:50:58.914Z,99.90
2019-05-15T04:53:29.648Z,99.90
2019-05-15T04:55:59.695Z,99.90
2019-05-15T04:58:29.715Z,99.90
2019-05-15T05:00:59.990Z,99.90
2019-05-15T05:03:29.511Z,99.90
2019-05-15T05:05:59.145Z,99.90
2019-05-15T05:08:29.159Z,99.90
2019-05-15T05:10:59.136Z,99.90
2019-05-15T05:13:28.731Z,99.90
2019-05-15T05:15:58.688Z,99.90
2019-05-15T05:18:29.497Z,99.90
2019-05-15T05:20:57.841Z,99.90
2019-05-15T05:23:28.205Z,99.90
2019-05-15T05:25:58.116Z,99.90
2019-05-15T05:28:28.868Z,99.90
2019-05-15T05:30:58.768Z,99.90
2019-05-15T05:33:28.620Z,99.90
2019-05-15T05:35:58.386Z,99.90
2019-05-15T05:38:28.201Z,99.90
2019-05-15T05:40:58.648Z,99.90
2019-05-15T05:43:27.112Z,99.90
2019-05-15T05:45:55.536Z,99.90
2019-05-15T05:48:23.932Z,99.90
2019-05-15T05:50:52.612Z,99.90
2019-05-15T05:53:21.550Z,99.90
2019-05-15T05:55:53.043Z,99.90
2019-05-15T05:58:21.753Z,99.90
2019-05-15T06:00:50.432Z,99.90
2019-05-15T06:03:19.674Z,99.90
2019-05-15T06:05:49.526Z,99.90
2019-05-15T06:08:19.443Z,99.90
2019-05-15T06:10:49.604Z,99.90
2019-05-15T06:13:18.803Z,99.90
2019-05-15T06:15:48.770Z,99.90
2019-05-15T06:18:19.471Z,99.90
2019-05-15T06:20:49.351Z,99.90
2019-05-15T06:23:23.455Z,99.90
2019-05-15T06:25:49.064Z,99.90
2019-05-15T06:28:19.669Z,99.90
2019-05-15T06:30:48.591Z,99.90
2019-05-15T06:33:18.672Z,99.90
2019-05-15T06:35:49.019Z,99.90
2019-05-15T06:38:19.400Z,99.90
2019-05-15T06:40:49.054Z,99.90
2019-05-15T06:43:19.150Z,99.90
2019-05-15T06:45:48.854Z,99.90
2019-05-15T06:48:18.381Z,99.90
2019-05-15T06:50:49.209Z,99.90
2019-05-15T06:53:19.125Z,99.90
2019-05-15T06:55:48.576Z,99.90
2019-05-15T06:58:19.201Z,99.70
2019-05-15T07:00:48.777Z,99.20
2019-05-15T07:03:24.878Z,98.10
2019-05-15T07:05:50.326Z,97.10
2019-05-15T07:08:18.280Z,96.00
2019-05-15T07:10:48.677Z,94.90
2019-05-15T07:13:18.300Z,93.50
2019-05-15T07:15:49.464Z,92.00
2019-05-15T07:18:19.670Z,90.80
2019-05-15T07:20:48.836Z,88.40
2019-05-15T07:23:18.716Z,87.10
2019-05-15T07:25:49.905Z,85.50
2019-05-15T07:28:18.287Z,83.60
2019-05-15T07:30:49.337Z,83.50
2019-05-15T07:33:28.120Z,83.30
2019-05-15T07:35:49.401Z,82.10
2019-05-15T07:38:18.330Z,81.20
2019-05-15T07:40:54.300Z,80.90
2019-05-15T07:43:18.132Z,80.20
2019-05-15T07:45:53.628Z,79.10
2019-05-15T07:48:18.904Z,78.60
2019-05-15T07:50:49.775Z,77.20
2019-05-15T07:53:19.795Z,77.00
2019-05-15T07:55:49.924Z,77.40
2019-05-15T07:58:21.232Z,77.10
2019-05-15T08:00:49.256Z,75.80
2019-05-15T08:03:18.533Z,74.90
2019-05-15T08:05:56.136Z,74.20
2019-05-15T08:08:18.501Z,73.20
2019-05-15T08:10:49.002Z,72.60
2019-05-15T08:13:18.435Z,72.00
2019-05-15T08:15:48.810Z,71.00
2019-05-15T08:18:18.313Z,70.00
2019-05-15T08:23:19.356Z,68.70
2019-05-15T08:25:48.510Z,67.30
2019-05-15T08:26:05.638Z,69.60
2019-05-15T08:28:19.191Z,66.60
2019-05-15T08:30:49.461Z,65.60
2019-05-15T08:33:18.642Z,65.10
2019-05-15T08:35:51.202Z,64.80
2019-05-15T08:38:18.288Z,63.90
2019-05-15T08:40:48.921Z,63.20
2019-05-15T08:43:18.449Z,62.60
2019-05-15T08:45:49.613Z,62.50
2019-05-15T08:48:18.552Z,61.30
2019-05-15T08:50:48.822Z,60.00
2019-05-15T08:53:19.381Z,59.90
2019-05-15T08:55:48.567Z,59.60
2019-05-15T08:58:20.242Z,58.60
2019-05-15T09:00:51.773Z,58.80
2019-05-15T09:03:18.288Z,57.90
2019-05-15T09:05:48.436Z,57.20
2019-05-15T09:08:19.460Z,56.20
2019-05-15T09:10:49.835Z,55.70
2019-05-15T09:13:18.906Z,54.60
2019-05-15T09:15:48.380Z,53.80
2019-05-15T09:18:19.930Z,53.10
2019-05-15T09:20:49.290Z,52.80
2019-05-15T09:23:19.240Z,51.70
2019-05-15T09:25:49.450Z,51.30
2019-05-15T09:28:19.027Z,50.40
2019-05-15T09:30:48.495Z,49.80
2019-05-15T09:33:19.572Z,49.00
2019-05-15T09:35:49.159Z,48.10
2019-05-15T09:38:18.397Z,47.20
2019-05-15T09:40:50.450Z,47.40
2019-05-15T09:43:18.249Z,47.10
2019-05-15T09:45:49.204Z,46.10
2019-05-15T09:48:19.681Z,45.00
2019-05-15T09:50:49.236Z,44.10
2019-05-15T09:53:18.815Z,43.80
2019-05-15T09:55:49.454Z,43.50
2019-05-15T09:58:20.303Z,43.60
2019-05-15T10:00:52.263Z,42.50
2019-05-15T10:03:19.262Z,42.40
2019-05-15T10:05:48.301Z,42.80
2019-05-15T10:08:16.880Z,42.30
2019-05-15T10:10:45.336Z,41.80
2019-05-15T10:13:13.768Z,41.20
2019-05-15T10:15:42.196Z,41.80
2019-05-15T10:18:10.598Z,42.50
2019-05-15T10:20:39.024Z,42.50
2019-05-15T10:23:08.829Z,42.80
2019-05-15T10:25:38.893Z,42.80
2019-05-15T10:28:09.771Z,42.90
2019-05-15T10:30:39.412Z,43.20
2019-05-15T10:33:08.553Z,44.30
2019-05-15T10:35:39.336Z,43.40
2019-05-15T10:38:08.877Z,43.00
2019-05-15T10:40:41.081Z,42.80
2019-05-15T10:43:09.086Z,42.90
2019-05-15T10:45:42.507Z,42.50
2019-05-15T10:48:09.366Z,43.10
2019-05-15T10:50:38.748Z,43.30
2019-05-15T10:53:10.929Z,44.10
2019-05-15T10:55:39.438Z,44.80
2019-05-15T10:58:16.720Z,43.90
2019-05-15T11:00:38.157Z,42.90
2019-05-15T11:03:08.695Z,42.10
2019-05-15T11:05:45.179Z,41.80
2019-05-15T11:08:08.353Z,41.20
2019-05-15T11:10:41.502Z,41.50
2019-05-15T11:13:09.003Z,42.00
2019-05-15T11:15:40.461Z,41.90
2019-05-15T11:18:09.306Z,41.60
2019-05-15T11:20:40.894Z,41.00
2019-05-15T11:23:09.364Z,40.60
2019-05-15T11:25:37.900Z,39.40
2019-05-15T11:28:08.249Z,38.60
2019-05-15T11:30:39.006Z,38.60
2019-05-15T11:33:09.360Z,38.00
2019-05-15T11:35:39.094Z,37.80
2019-05-15T11:38:10.085Z,37.60
2019-05-15T11:40:39.035Z,37.40
2019-05-15T11:43:08.517Z,37.30
2019-05-15T11:45:39.071Z,36.10
2019-05-15T11:48:09.016Z,35.10
2019-05-15T11:50:40.045Z,34.30
2019-05-15T11:53:08.675Z,35.00
2019-05-15T11:55:38.731Z,35.70
2019-05-15T11:58:09.391Z,36.60
2019-05-15T12:00:38.394Z,37.20
2019-05-15T12:03:11.860Z,36.90
2019-05-15T12:05:40.328Z,35.90
2019-05-15T12:08:12.049Z,35.50
2019-05-15T12:10:39.111Z,35.80
2019-05-15T12:13:09.836Z,36.00
2019-05-15T12:15:38.813Z,36.30
2019-05-15T12:18:08.845Z,35.80
2019-05-15T12:20:38.910Z,36.00
2019-05-15T12:23:09.004Z,35.50
2019-05-15T12:25:39.589Z,35.70
2019-05-15T12:28:09.618Z,36.40
2019-05-15T12:30:40.367Z,38.00
2019-05-15T12:33:09.284Z,38.80
2019-05-15T12:35:39.708Z,37.10
2019-05-15T12:39:26.018Z,36.40
2019-05-15T13:00:41.635Z,38.30
2019-05-15T13:03:10.081Z,37.60
2019-05-15T13:05:39.262Z,37.20
2019-05-15T13:08:08.511Z,36.40
2019-05-15T13:10:38.555Z,36.40
2019-05-15T13:13:09.686Z,36.00
2019-05-15T13:15:40.816Z,35.50
2019-05-15T13:18:13.614Z,34.90
2019-05-15T13:20:38.385Z,34.50
2019-05-15T13:23:08.723Z,35.00
2019-05-15T13:25:39.463Z,36.40
2019-05-15T13:28:08.830Z,36.80
2019-05-15T13:30:41.036Z,36.40
2019-05-15T13:33:10.010Z,35.30
2019-05-15T13:35:38.156Z,34.50
2019-05-15T13:38:09.480Z,34.00
2019-05-15T13:40:38.976Z,35.10
2019-05-15T13:43:08.293Z,35.20
2019-05-15T13:45:38.586Z,34.40
2019-05-15T13:48:08.907Z,34.30
2019-05-15T13:50:40.315Z,34.00
2019-05-15T13:53:10.960Z,33.30
2019-05-15T13:55:42.350Z,33.10
2019-05-15T13:58:08.696Z,32.30
2019-05-15T14:00:38.916Z,32.20
2019-05-15T14:03:09.080Z,31.90
2019-05-15T14:05:38.504Z,32.60
2019-05-15T14:08:07.249Z,32.10
2019-05-15T14:10:38.270Z,31.30
2019-05-15T14:13:05.971Z,32.10
2019-05-15T14:15:34.521Z,32.20
2019-05-15T14:18:02.930Z,32.50
2019-05-15T14:20:31.417Z,32.70
2019-05-15T14:22:59.827Z,33.00
2019-05-15T14:25:28.242Z,34.20
2019-05-15T14:27:59.089Z,34.40
2019-05-15T14:30:29.290Z,34.60
2019-05-15T14:32:59.825Z,34.90
2019-05-15T14:35:27.329Z,35.00
2019-05-15T14:38:03.645Z,34.10
2019-05-15T14:40:25.920Z,33.70
2019-05-15T14:42:54.343Z,32.70
2019-05-15T14:45:22.774Z,32.60
2019-05-15T14:47:51.173Z,32.70
2019-05-15T14:50:19.624Z,32.70
2019-05-15T14:52:48.169Z,33.30
2019-05-15T14:55:18.315Z,34.20
2019-05-15T14:57:48.718Z,34.90
2019-05-15T15:00:19.928Z,36.10
2019-05-15T15:02:49.367Z,37.10
2019-05-15T15:05:21.575Z,38.10
2019-05-15T15:07:49.228Z,39.10
2019-05-15T15:10:20.130Z,39.40
2019-05-15T15:12:49.985Z,40.00
2019-05-15T15:15:18.917Z,40.70
2019-05-15T15:17:49.258Z,40.60
2019-05-15T15:20:19.556Z,41.10
2019-05-15T15:22:48.505Z,41.40
2019-05-15T15:25:17.169Z,41.20
2019-05-15T15:27:47.828Z,41.60
2019-05-15T15:30:18.744Z,42.00
2019-05-15T15:32:48.569Z,42.00
2019-05-15T15:35:16.409Z,41.20
2019-05-15T15:37:45.762Z,40.90
2019-05-15T15:40:14.312Z,40.80
2019-05-15T15:42:42.786Z,40.90
2019-05-15T15:45:12.758Z,40.80
2019-05-15T15:47:41.197Z,40.90
2019-05-15T15:50:10.049Z,40.60
2019-05-15T15:52:38.980Z,40.70
2019-05-15T15:55:08.817Z,40.70
2019-05-15T15:57:39.742Z,40.20
2019-05-15T16:00:10.259Z,40.30
2019-05-15T16:02:40.994Z,40.10
2019-05-15T16:05:09.761Z,40.10
2019-05-15T16:07:38.832Z,39.80
2019-05-15T16:10:08.576Z,40.20
2019-05-15T16:12:38.807Z,40.20
2019-05-15T16:15:09.144Z,40.40
2019-05-15T16:17:38.446Z,40.40
2019-05-15T16:20:09.133Z,40.10
2019-05-15T16:22:38.310Z,40.20
2019-05-15T16:25:10.193Z,40.50
2019-05-15T16:27:38.703Z,40.80
2019-05-15T16:30:09.389Z,40.60
2019-05-15T16:32:38.904Z,40.60
2019-05-15T16:35:08.655Z,40.40
2019-05-15T16:37:38.772Z,40.80
2019-05-15T16:40:08.341Z,40.50
2019-05-15T16:42:38.616Z,40.80
2019-05-15T16:45:09.713Z,40.90
2019-05-15T16:47:38.914Z,40.90
2019-05-15T16:50:08.829Z,41.60
2019-05-15T16:52:38.855Z,41.80
2019-05-15T16:55:09.547Z,41.70
2019-05-15T16:57:38.914Z,41.30
2019-05-15T17:00:09.534Z,41.40
2019-05-15T17:02:39.491Z,41.70
2019-05-15T17:05:09.465Z,41.70
2019-05-15T17:07:38.865Z,41.70
2019-05-15T17:10:08.537Z,42.00
2019-05-15T17:12:38.835Z,42.30
2019-05-15T17:15:09.925Z,42.30
2019-05-15T17:17:40.271Z,42.40
2019-05-15T17:20:09.813Z,42.00
2019-05-15T17:22:38.517Z,42.40
2019-05-15T17:25:09.373Z,42.00
2019-05-15T17:27:37.621Z,42.10
2019-05-15T17:30:09.414Z,42.10
2019-05-15T17:32:38.891Z,42.60
2019-05-15T17:35:11.003Z,42.90
2019-05-15T17:37:39.489Z,42.40
2019-05-15T17:40:09.055Z,42.50
2019-05-15T17:42:38.931Z,42.60
2019-05-15T17:45:09.005Z,43.40
2019-05-15T17:47:38.854Z,43.20
2019-05-15T17:50:09.301Z,43.50
2019-05-15T17:52:38.720Z,43.70
2019-05-15T17:55:07.913Z,43.50
2019-05-15T17:57:38.834Z,43.10
2019-05-15T18:00:12.477Z,43.00
2019-05-15T18:02:40.025Z,43.20
2019-05-15T18:05:09.785Z,43.20
2019-05-15T18:07:38.936Z,43.40
2019-05-15T18:10:08.460Z,43.30
2019-05-15T18:12:38.876Z,43.20
2019-05-15T18:15:09.089Z,43.30
2019-05-15T18:17:39.259Z,43.20
2019-05-15T18:20:09.810Z,42.90
2019-05-15T18:22:38.386Z,43.10
2019-05-15T18:25:09.055Z,42.80
2019-05-15T18:27:38.938Z,43.20
2019-05-15T18:30:09.228Z,42.70
2019-05-15T18:32:39.266Z,41.80
2019-05-15T18:35:08.424Z,40.80
2019-05-15T18:37:39.403Z,40.00
2019-05-15T18:40:09.865Z,38.90
2019-05-15T18:42:38.953Z,38.80
2019-05-15T18:45:08.382Z,38.70
2019-05-15T18:47:38.957Z,38.70
2019-05-15T18:50:13.017Z,38.60
2019-05-15T18:52:39.215Z,38.30
2019-05-15T18:55:08.520Z,38.40
2019-05-15T18:57:38.630Z,38.00
2019-05-15T19:00:08.781Z,38.00
2019-05-15T19:02:39.354Z,38.30
2019-05-15T19:05:08.945Z,38.30
2019-05-15T19:07:38.448Z,38.10
2019-05-15T19:10:10.538Z,38.40
2019-05-15T19:12:39.244Z,38.70
2019-05-15T19:15:09.462Z,39.20
2019-05-15T19:17:38.893Z,39.00
2019-05-15T19:20:08.778Z,38.90
2019-05-15T19:22:40.549Z,39.60
2019-05-15T19:25:09.010Z,39.60
2019-05-15T19:27:39.062Z,39.50
2019-05-15T19:30:09.391Z,39.50
2019-05-15T19:32:39.737Z,39.50
2019-05-15T19:35:08.830Z,39.80
2019-05-15T19:37:38.361Z,39.90
2019-05-15T19:40:08.617Z,39.70
2019-05-15T19:42:38.310Z,40.10
2019-05-15T19:45:08.648Z,39.70
2019-05-15T19:47:38.671Z,39.60
2019-05-15T19:50:08.457Z,39.80
2019-05-15T19:52:37.066Z,39.80
2019-05-15T19:55:08.600Z,40.20
2019-05-15T19:57:39.223Z,40.70
2019-05-15T20:00:08.845Z,40.80
2019-05-15T20:02:48.573Z,40.70
2019-05-15T20:05:18.304Z,40.80
2019-05-15T20:07:47.985Z,40.90
2019-05-15T20:10:18.668Z,41.00
2019-05-15T20:12:47.952Z,41.30
2019-05-15T20:15:19.045Z,41.20
2019-05-15T20:17:47.965Z,41.40
2019-05-15T20:20:18.663Z,41.80
2019-05-15T20:22:47.491Z,41.90
2019-05-15T20:25:18.321Z,42.10
2019-05-15T20:27:48.161Z,42.60
2019-05-15T20:30:18.060Z,43.00
2019-05-15T20:32:47.871Z,43.10
2019-05-15T20:35:16.553Z,43.10
2019-05-15T20:37:45.196Z,43.60
2019-05-15T20:40:14.633Z,43.80
2019-05-15T20:42:43.071Z,44.10
2019-05-15T20:45:12.514Z,44.10
2019-05-15T20:47:41.078Z,44.50
2019-05-15T20:50:11.197Z,44.80
2019-05-15T20:52:39.898Z,44.90
2019-05-15T20:55:09.005Z,45.20
2019-05-15T20:57:40.647Z,45.60
2019-05-15T21:00:10.450Z,46.00
2019-05-15T21:02:39.219Z,45.90
2019-05-15T21:05:08.854Z,46.40
2019-05-15T21:07:42.151Z,46.90
2019-05-15T21:10:08.481Z,47.00
2019-05-15T21:12:40.452Z,47.10
2019-05-15T21:15:08.722Z,47.30
2019-05-15T21:17:39.404Z,47.50
2019-05-15T21:20:09.299Z,47.80
2019-05-15T21:22:40.201Z,48.10
2019-05-15T21:25:10.730Z,48.50
2019-05-15T21:27:54.221Z,48.70
2019-05-15T21:30:22.703Z,48.90
2019-05-15T21:32:51.212Z,49.40
2019-05-15T21:35:19.630Z,49.70
2019-05-15T21:37:49.012Z,51.00
2019-05-15T21:40:18.696Z,51.50
2019-05-15T21:42:49.231Z,52.00
2019-05-15T21:45:18.446Z,52.40
2019-05-15T21:47:47.025Z,52.80
2019-05-15T21:50:19.057Z,53.30
2019-05-15T21:52:49.473Z,53.90
2019-05-15T21:55:18.682Z,54.20
2019-05-15T21:57:47.348Z,54.60
2019-05-15T22:00:29.507Z,55.00
2019-05-15T22:02:58.597Z,55.30
2019-05-15T22:05:28.622Z,55.70
2019-05-15T22:07:58.721Z,56.20
2019-05-15T22:10:31.068Z,56.60
2019-05-15T22:12:59.568Z,56.80
2019-05-15T22:15:29.052Z,57.30
2019-05-15T22:17:57.852Z,57.50
2019-05-15T22:20:30.190Z,58.00
2019-05-15T22:22:59.248Z,58.10
2019-05-15T22:25:28.023Z,58.60
2019-05-15T22:27:57.840Z,59.00
2019-05-15T22:30:29.916Z,59.30
2019-05-15T22:32:58.775Z,59.60
2019-05-15T22:35:29.352Z,60.60
2019-05-15T22:37:58.410Z,60.00
2019-05-15T22:40:28.949Z,60.30
2019-05-15T22:42:59.137Z,60.50
2019-05-15T22:45:28.514Z,60.90
2019-05-15T22:47:59.286Z,61.00
2019-05-15T22:50:28.259Z,60.90
2019-05-15T22:52:58.656Z,61.40
2019-05-15T22:55:29.001Z,61.60
2019-05-15T22:57:58.656Z,61.60
2019-05-15T23:00:28.874Z,61.50
2019-05-15T23:02:58.146Z,61.60
2019-05-15T23:05:30.940Z,61.60
2019-05-15T23:07:58.878Z,61.80
2019-05-15T23:10:29.315Z,61.90
2019-05-15T23:12:58.153Z,62.00
2019-05-15T23:15:28.165Z,62.20
2019-05-15T23:17:58.347Z,62.30
2019-05-15T23:20:28.599Z,62.50
2019-05-15T23:22:58.440Z,62.60
2019-05-15T23:25:29.004Z,62.90
2019-05-15T23:27:58.122Z,63.10
2019-05-15T23:30:28.819Z,63.30
2019-05-15T23:32:58.100Z,63.70
2019-05-15T23:35:35.448Z,63.90
2019-05-15T23:37:58.024Z,64.10
2019-05-15T23:40:28.826Z,64.40
2019-05-15T23:42:56.878Z,64.40
2019-05-15T23:45:25.289Z,64.60
2019-05-15T23:47:53.860Z,64.90
2019-05-15T23:50:22.297Z,65.20
2019-05-15T23:52:50.692Z,65.40
2019-05-15T23:55:19.193Z,65.80
2019-05-15T23:57:48.499Z,65.90
